createdAt,value
2022-10-06T00:01:12.787Z,8.64
2022-10-06T00:03:44.198Z,8.73
2022-10-06T00:06:16.848Z,8.82
2022-10-06T00:08:46.078Z,8.80
2022-10-06T00:11:15.321Z,8.70
2022-10-06T00:13:44.168Z,8.59
2022-10-06T00:16:17.757Z,8.52
2022-10-06T00:18:46.356Z,8.44
2022-10-06T00:21:14.837Z,8.39
2022-10-06T00:23:43.534Z,8.35
2022-10-06T00:26:17.387Z,8.28
2022-10-06T00:28:49.494Z,8.23
2022-10-06T00:31:20.056Z,8.20
2022-10-06T00:33:49.840Z,8.20
2022-10-06T00:36:18.221Z,8.19
2022-10-06T00:38:46.601Z,8.17
2022-10-06T00:41:15.991Z,8.14
2022-10-06T00:43:47.765Z,8.14
2022-10-06T00:46:17.210Z,8.14
2022-10-06T00:48:46.923Z,8.16
2022-10-06T00:51:15.462Z,8.14
2022-10-06T00:53:43.960Z,8.12
2022-10-06T00:56:12.548Z,8.10
2022-10-06T00:58:41.011Z,8.08
2022-10-06T01:01:11.759Z,8.03
2022-10-06T01:03:46.166Z,7.96
2022-10-06T01:06:15.160Z,7.89
2022-10-06T01:08:43.622Z,7.86
2022-10-06T01:11:15.627Z,7.83
2022-10-06T01:13:45.113Z,7.81
2022-10-06T01:16:18.977Z,7.80
2022-10-06T01:18:49.173Z,7.79
2022-10-06T01:21:20.284Z,7.78
2022-10-06T01:23:50.201Z,7.78
2022-10-06T01:26:20.292Z,7.74
2022-10-06T01:28:48.778Z,7.70
2022-10-06T01:31:18.088Z,7.66
2022-10-06T01:33:51.296Z,7.62
2022-10-06T01:36:20.391Z,7.60
2022-10-06T01:38:50.615Z,7.60
2022-10-06T01:41:20.096Z,7.59
2022-10-06T01:43:48.711Z,7.57
2022-10-06T01:46:17.131Z,7.54
2022-10-06T01:48:45.771Z,7.51
2022-10-06T01:51:16.506Z,7.46
2022-10-06T01:53:44.988Z,7.41
2022-10-06T01:56:14.288Z,7.38
2022-10-06T01:58:43.488Z,7.38
2022-10-06T02:01:12.703Z,7.38
2022-10-06T02:03:41.476Z,7.40
2022-10-06T02:06:10.712Z,7.42
2022-10-06T02:08:39.565Z,7.45
2022-10-06T02:11:09.524Z,7.48
2022-10-06T02:13:42.469Z,7.49
2022-10-06T02:16:12.807Z,7.49
2022-10-06T02:18:42.609Z,7.50
2022-10-06T02:21:18.206Z,7.50
2022-10-06T02:23:46.432Z,7.49
2022-10-06T02:26:19.931Z,7.48
2022-10-06T02:28:50.242Z,7.46
2022-10-06T02:31:21.831Z,7.46
2022-10-06T02:33:50.189Z,7.46
2022-10-06T02:36:19.160Z,7.48
2022-10-06T02:38:47.757Z,7.47
2022-10-06T02:41:16.044Z,7.46
2022-10-06T02:43:44.320Z,7.43
2022-10-06T02:46:13.969Z,7.40
2022-10-06T02:48:47.430Z,7.36
2022-10-06T02:51:19.682Z,7.33
2022-10-06T02:53:48.900Z,7.29
2022-10-06T02:56:20.660Z,7.27
2022-10-06T02:58:50.063Z,7.26
2022-10-06T03:01:30.479Z,7.23
2022-10-06T03:04:01.266Z,7.22
2022-10-06T03:06:31.481Z,7.22
2022-10-06T03:09:11.671Z,7.20
2022-10-06T03:11:42.983Z,7.19
2022-10-06T03:14:19.091Z,7.19
2022-10-06T03:16:55.116Z,7.21
2022-10-06T03:19:28.201Z,7.22
2022-10-06T03:21:56.679Z,7.24
2022-10-06T03:24:31.980Z,7.26
2022-10-06T03:27:00.912Z,7.28
2022-10-06T03:29:31.445Z,7.30
2022-10-06T03:32:00.232Z,7.33
2022-10-06T03:34:29.941Z,7.34
2022-10-06T03:36:58.941Z,7.36
2022-10-06T03:39:28.036Z,7.38
2022-10-06T03:41:57.209Z,7.40
2022-10-06T03:44:25.508Z,7.41
2022-10-06T03:46:54.211Z,7.40
2022-10-06T03:49:23.187Z,7.37
2022-10-06T03:51:51.566Z,7.34
2022-10-06T03:54:23.634Z,7.30
2022-10-06T03:56:53.747Z,7.25
2022-10-06T03:59:21.976Z,7.22
2022-10-06T04:01:53.291Z,7.18
2022-10-06T04:04:28.836Z,7.14
2022-10-06T04:07:07.546Z,7.12
2022-10-06T04:09:36.990Z,7.11
2022-10-06T04:12:05.330Z,7.09
2022-10-06T04:14:36.142Z,7.08
2022-10-06T04:17:05.471Z,7.07
2022-10-06T04:19:37.330Z,7.06
2022-10-06T04:22:05.610Z,7.05
2022-10-06T04:24:35.350Z,7.04
2022-10-06T04:27:22.959Z,7.03
2022-10-06T04:29:56.653Z,7.02
2022-10-06T04:32:25.749Z,7.02
2022-10-06T04:34:54.333Z,7.03
2022-10-06T04:37:23.841Z,7.04
2022-10-06T04:39:52.424Z,7.07
2022-10-06T04:42:20.605Z,7.11
2022-10-06T04:44:49.080Z,7.16
2022-10-06T04:47:17.872Z,7.21
2022-10-06T04:49:46.349Z,7.28
2022-10-06T04:52:14.915Z,7.34
2022-10-06T04:54:43.828Z,7.39
2022-10-06T04:57:12.309Z,7.46
2022-10-06T05:00:05.313Z,7.53
2022-10-06T05:02:37.286Z,7.63
2022-10-06T05:05:08.243Z,7.73
2022-10-06T05:07:36.760Z,7.83
2022-10-06T05:10:05.644Z,7.93
2022-10-06T05:12:34.535Z,8.03
2022-10-06T05:15:02.760Z,8.16
2022-10-06T05:17:31.296Z,8.27
2022-10-06T05:20:00.597Z,8.37
2022-10-06T05:22:28.874Z,8.46
2022-10-06T05:24:57.252Z,8.56
2022-10-06T05:27:25.838Z,8.67
2022-10-06T05:29:54.351Z,8.78
2022-10-06T05:32:22.904Z,8.92
2022-10-06T05:34:51.182Z,9.05
2022-10-06T05:37:19.692Z,9.18
2022-10-06T05:39:48.554Z,9.30
2022-10-06T05:42:17.652Z,9.42
2022-10-06T05:44:46.543Z,9.55
2022-10-06T05:47:16.764Z,9.68
2022-10-06T05:49:45.861Z,9.79
2022-10-06T05:52:14.076Z,9.95
2022-10-06T05:54:43.133Z,10.09
2022-10-06T05:57:12.024Z,10.20
2022-10-06T05:59:40.404Z,10.34
2022-10-06T06:02:09.519Z,10.49
2022-10-06T06:04:40.543Z,10.57
2022-10-06T06:07:09.444Z,10.60
2022-10-06T06:09:38.530Z,10.65
2022-10-06T06:12:07.561Z,10.70
2022-10-06T06:15:13.155Z,10.84
2022-10-06T06:17:46.883Z,10.97
2022-10-06T06:20:15.570Z,11.12
2022-10-06T06:22:43.953Z,11.27
2022-10-06T06:25:13.562Z,11.40
2022-10-06T06:27:43.987Z,11.55
2022-10-06T06:30:13.016Z,11.76
2022-10-06T06:32:41.873Z,11.98
2022-10-06T06:35:11.815Z,12.22
2022-10-06T06:37:40.172Z,12.51
2022-10-06T06:40:08.828Z,12.72
2022-10-06T06:42:39.461Z,12.90
2022-10-06T06:45:34.493Z,13.09
2022-10-06T06:48:17.722Z,13.18
2022-10-06T06:50:55.685Z,13.28
2022-10-06T06:53:24.823Z,13.33
2022-10-06T06:55:54.869Z,13.37
2022-10-06T06:58:24.143Z,13.51
2022-10-06T07:00:52.871Z,13.64
2022-10-06T07:03:52.185Z,13.78
2022-10-06T07:06:11.606Z,13.89
2022-10-06T07:08:44.420Z,14.15
2022-10-06T07:11:14.329Z,14.46
2022-10-06T07:13:43.505Z,14.79
2022-10-06T07:16:34.617Z,15.05
2022-10-06T07:19:24.769Z,15.15
2022-10-06T07:22:17.977Z,15.45
2022-10-06T07:25:05.499Z,15.77
2022-10-06T07:27:38.055Z,16.08
2022-10-06T07:30:06.662Z,16.35
2022-10-06T07:32:34.940Z,16.52
2022-10-06T07:35:04.856Z,16.72
2022-10-06T07:37:36.925Z,16.85
2022-10-06T07:40:06.942Z,16.96
2022-10-06T07:42:48.497Z,17.15
2022-10-06T07:45:39.330Z,17.39
2022-10-06T07:48:18.468Z,17.61
2022-10-06T07:50:50.678Z,17.84
2022-10-06T07:53:27.726Z,18.02
2022-10-06T07:56:09.620Z,18.19
2022-10-06T07:58:45.073Z,18.23
2022-10-06T08:01:14.887Z,18.40
2022-10-06T08:03:43.985Z,18.58
2022-10-06T08:06:16.348Z,18.70
2022-10-06T08:08:48.063Z,18.82
2022-10-06T08:11:21.506Z,18.98
2022-10-06T08:13:52.169Z,19.09
2022-10-06T08:16:22.995Z,19.16
2022-10-06T08:18:55.149Z,19.30
2022-10-06T08:21:26.600Z,19.39
2022-10-06T08:23:56.947Z,19.38
2022-10-06T08:26:26.603Z,19.50
2022-10-06T08:28:57.986Z,19.70
2022-10-06T08:31:26.797Z,19.88
2022-10-06T08:33:56.933Z,19.93
2022-10-06T08:36:30.941Z,20.05
2022-10-06T08:39:00.724Z,20.10
2022-10-06T08:41:32.973Z,20.16
2022-10-06T08:44:16.860Z,20.39
2022-10-06T08:46:50.953Z,20.70
2022-10-06T08:49:20.770Z,20.86
2022-10-06T08:52:10.549Z,20.94
2022-10-06T08:54:47.428Z,21.02
2022-10-06T08:57:35.266Z,21.01
2022-10-06T09:00:08.754Z,20.98
2022-10-06T09:02:39.577Z,20.81
2022-10-06T09:05:09.007Z,20.75
2022-10-06T09:07:44.144Z,20.84
2022-10-06T09:10:31.161Z,20.99
2022-10-06T09:13:21.716Z,21.20
2022-10-06T09:15:53.477Z,21.44
2022-10-06T09:18:56.002Z,21.58
2022-10-06T09:21:24.521Z,21.71
2022-10-06T09:23:54.284Z,21.80
2022-10-06T09:26:24.136Z,21.93
2022-10-06T09:28:52.928Z,21.90
2022-10-06T09:31:32.598Z,21.94
2022-10-06T09:34:05.766Z,22.03
2022-10-06T09:36:57.698Z,21.98
2022-10-06T09:39:33.017Z,21.79
2022-10-06T09:42:03.960Z,21.72
2022-10-06T09:44:52.730Z,21.71
2022-10-06T09:47:36.663Z,21.95
2022-10-06T09:50:22.046Z,22.06
2022-10-06T09:53:00.887Z,22.18
2022-10-06T09:55:34.142Z,22.35
2022-10-06T09:58:02.952Z,22.39
2022-10-06T10:00:33.270Z,22.61
2022-10-06T10:03:01.834Z,22.87
2022-10-06T10:05:32.905Z,22.96
2022-10-06T10:08:19.355Z,23.09
2022-10-06T10:10:48.608Z,23.29
2022-10-06T10:13:26.912Z,23.26
2022-10-06T10:16:03.330Z,23.26
2022-10-06T10:18:32.387Z,23.02
2022-10-06T10:21:05.377Z,23.14
2022-10-06T10:23:39.250Z,23.35
2022-10-06T10:26:19.645Z,23.18
2022-10-06T10:29:03.593Z,22.94
2022-10-06T10:31:44.270Z,22.92
2022-10-06T10:34:25.199Z,22.81
2022-10-06T10:36:56.420Z,22.88
2022-10-06T10:39:37.974Z,23.07
2022-10-06T10:42:14.235Z,22.99
2022-10-06T10:44:48.043Z,22.84
2022-10-06T10:47:31.000Z,22.94
2022-10-06T10:50:19.723Z,23.01
2022-10-06T10:52:50.767Z,23.00
2022-10-06T10:55:30.561Z,23.10
2022-10-06T10:58:00.308Z,23.29
2022-10-06T11:00:31.025Z,23.32
2022-10-06T11:03:01.592Z,23.48
2022-10-06T11:05:52.092Z,23.67
2022-10-06T11:08:25.285Z,23.90
2022-10-06T11:10:59.071Z,24.26
2022-10-06T11:13:39.047Z,24.55
2022-10-06T11:16:19.848Z,24.85
2022-10-06T11:18:51.370Z,24.98
2022-10-06T11:21:26.099Z,25.03
2022-10-06T11:24:20.694Z,24.86
2022-10-06T11:27:08.425Z,25.01
2022-10-06T11:29:36.808Z,25.11
2022-10-06T11:32:17.868Z,25.18
2022-10-06T11:34:48.527Z,25.34
2022-10-06T11:37:23.045Z,25.43
2022-10-06T11:39:57.994Z,25.56
2022-10-06T11:42:42.747Z,25.22
2022-10-06T11:45:14.098Z,25.15
2022-10-06T11:47:56.606Z,25.07
2022-10-06T11:50:33.527Z,24.85
2022-10-06T11:53:02.274Z,25.05
2022-10-06T11:55:30.756Z,25.34
2022-10-06T12:01:02.642Z,25.81
2022-10-06T12:03:33.991Z,25.62
2022-10-06T12:06:03.600Z,25.35
2022-10-06T12:08:39.475Z,25.38
2022-10-06T12:11:27.292Z,25.45
2022-10-06T12:17:15.415Z,25.81
2022-10-06T12:19:46.645Z,26.31
2022-10-06T12:22:18.466Z,26.24
2022-10-06T12:24:53.198Z,26.38
2022-10-06T12:27:30.690Z,26.49
2022-10-06T12:30:02.697Z,26.82
2022-10-06T12:32:40.659Z,26.93
2022-10-06T12:35:10.165Z,26.84
2022-10-06T12:37:43.564Z,27.04
2022-10-06T12:40:31.301Z,27.71
2022-10-06T12:43:18.624Z,28.01
2022-10-06T12:45:47.175Z,28.24
2022-10-06T12:48:18.661Z,28.29
2022-10-06T12:50:48.953Z,27.96
2022-10-06T12:53:21.177Z,27.79
2022-10-06T12:55:52.016Z,28.06
2022-10-06T12:58:30.429Z,28.75
2022-10-06T13:01:22.161Z,29.59
2022-10-06T13:03:52.003Z,30.31
2022-10-06T13:06:24.737Z,30.66
2022-10-06T13:09:07.472Z,30.84
2022-10-06T13:11:35.936Z,31.26
2022-10-06T13:14:13.435Z,31.84
2022-10-06T13:16:46.547Z,32.62
2022-10-06T13:19:17.363Z,32.91
2022-10-06T13:21:46.820Z,33.00
2022-10-06T13:24:19.647Z,33.27
2022-10-06T13:26:48.749Z,33.50
2022-10-06T13:29:21.637Z,33.56
2022-10-06T13:31:52.946Z,33.84
2022-10-06T13:34:34.964Z,34.11
2022-10-06T13:37:03.813Z,34.19
2022-10-06T13:39:32.381Z,34.13
2022-10-06T13:42:11.284Z,33.82
2022-10-06T13:44:39.868Z,33.46
2022-10-06T13:47:16.133Z,33.18
2022-10-06T13:49:50.463Z,33.04
2022-10-06T13:52:36.679Z,32.69
2022-10-06T13:55:17.496Z,32.88
2022-10-06T13:57:51.723Z,33.33
2022-10-06T14:00:27.289Z,33.83
2022-10-06T14:02:57.782Z,34.28
2022-10-06T14:05:27.539Z,34.56
2022-10-06T14:07:58.268Z,34.55
2022-10-06T14:10:35.569Z,34.56
2022-10-06T14:13:06.587Z,34.21
2022-10-06T14:15:40.231Z,34.10
2022-10-06T14:18:17.661Z,34.17
2022-10-06T14:20:47.105Z,34.01
2022-10-06T14:23:35.143Z,34.13
2022-10-06T14:26:03.752Z,34.34
2022-10-06T14:28:32.299Z,34.44
2022-10-06T14:31:00.783Z,34.41
2022-10-06T14:33:29.589Z,34.45
2022-10-06T14:35:57.968Z,34.54
2022-10-06T14:38:26.380Z,34.55
2022-10-06T14:40:55.036Z,34.52
2022-10-06T14:43:23.621Z,34.50
2022-10-06T14:45:51.942Z,34.48
2022-10-06T14:48:20.460Z,34.26
2022-10-06T14:50:49.711Z,33.63
2022-10-06T14:53:18.064Z,32.27
2022-10-06T14:55:46.444Z,31.49
2022-10-06T14:58:15.211Z,30.79
2022-10-06T15:00:44.639Z,30.12
2022-10-06T15:03:13.136Z,29.25
2022-10-06T15:06:01.573Z,28.67
2022-10-06T15:08:32.512Z,28.25
2022-10-06T15:11:01.096Z,28.34
2022-10-06T15:13:32.358Z,28.51
2022-10-06T15:16:00.868Z,28.63
2022-10-06T15:18:29.415Z,28.48
2022-10-06T15:21:02.197Z,28.05
2022-10-06T15:23:30.988Z,27.56
2022-10-06T15:26:18.104Z,27.14
2022-10-06T15:29:01.865Z,26.56
2022-10-06T15:31:35.642Z,25.92
2022-10-06T15:34:05.406Z,25.25
2022-10-06T15:36:34.896Z,24.69
2022-10-06T15:39:05.301Z,24.15
2022-10-06T15:41:37.990Z,23.64
2022-10-06T15:44:06.976Z,23.16
2022-10-06T15:46:35.548Z,22.70
2022-10-06T15:49:04.048Z,22.25
2022-10-06T15:51:38.656Z,21.80
2022-10-06T15:54:07.461Z,21.36
2022-10-06T15:56:35.944Z,20.97
2022-10-06T15:59:05.140Z,20.61
2022-10-06T16:01:35.390Z,20.27
2022-10-06T16:04:12.242Z,19.94
2022-10-06T16:06:49.329Z,19.66
2022-10-06T16:09:19.345Z,19.40
2022-10-06T16:11:48.241Z,19.16
2022-10-06T16:14:17.313Z,18.94
2022-10-06T16:16:46.495Z,18.71
2022-10-06T16:19:16.247Z,18.46
2022-10-06T16:21:46.352Z,18.23
2022-10-06T16:24:15.576Z,18.00
2022-10-06T16:26:44.071Z,17.79
2022-10-06T16:29:12.941Z,17.61
2022-10-06T16:31:41.789Z,17.47
2022-10-06T16:34:10.928Z,17.35
2022-10-06T16:36:39.518Z,17.21
2022-10-06T16:39:13.014Z,17.06
2022-10-06T16:41:41.677Z,16.89
2022-10-06T16:44:10.388Z,16.75
2022-10-06T16:46:39.358Z,16.61
2022-10-06T16:49:09.377Z,16.48
2022-10-06T16:51:39.009Z,16.35
2022-10-06T16:54:08.926Z,16.23
2022-10-06T16:56:41.657Z,16.11
2022-10-06T16:59:13.042Z,15.98
2022-10-06T17:01:41.972Z,15.88
2022-10-06T17:04:13.129Z,15.80
2022-10-06T17:06:43.736Z,15.70
2022-10-06T17:09:14.517Z,15.62
2022-10-06T17:11:44.378Z,15.54
2022-10-06T17:14:13.172Z,15.46
2022-10-06T17:16:43.082Z,15.38
2022-10-06T17:19:12.388Z,15.29
2022-10-06T17:21:46.354Z,15.20
2022-10-06T17:24:18.164Z,15.12
2022-10-06T17:26:48.009Z,15.05
2022-10-06T17:29:21.659Z,14.98
2022-10-06T17:31:53.646Z,14.90
2022-10-06T17:34:22.970Z,14.81
2022-10-06T17:36:53.061Z,14.74
2022-10-06T17:39:22.468Z,14.66
2022-10-06T17:41:52.667Z,14.58
2022-10-06T17:44:26.218Z,14.50
2022-10-06T17:46:55.755Z,14.44
2022-10-06T17:49:25.101Z,14.37
2022-10-06T17:51:54.927Z,14.28
2022-10-06T17:54:24.484Z,14.21
2022-10-06T17:56:54.342Z,14.16
2022-10-06T17:59:24.288Z,14.11
2022-10-06T18:01:56.819Z,14.05
2022-10-06T18:04:26.710Z,13.97
2022-10-06T18:06:55.947Z,13.89
2022-10-06T18:09:24.632Z,13.81
2022-10-06T18:12:33.050Z,13.75
2022-10-06T18:15:01.633Z,13.65
2022-10-06T18:17:30.116Z,13.59
2022-10-06T18:19:58.598Z,13.51
2022-10-06T18:22:26.980Z,13.44
2022-10-06T18:24:59.206Z,13.38
2022-10-06T18:27:28.357Z,13.33
2022-10-06T18:29:57.032Z,13.29
2022-10-06T18:33:56.423Z,13.26
2022-10-06T18:38:02.622Z,13.17
2022-10-06T18:40:31.312Z,13.13
2022-10-06T18:43:00.618Z,13.07
2022-10-06T18:45:47.988Z,13.02
2022-10-06T18:48:35.156Z,12.97
2022-10-06T18:51:03.842Z,12.91
2022-10-06T18:53:33.567Z,12.86
2022-10-06T18:56:01.832Z,12.81
2022-10-06T18:58:30.312Z,12.76
2022-10-06T19:01:04.046Z,12.72
2022-10-06T19:03:32.914Z,12.67
2022-10-06T19:06:01.390Z,12.63
2022-10-06T19:08:29.686Z,12.60
2022-10-06T19:11:20.883Z,12.57
2022-10-06T19:13:52.164Z,12.53
2022-10-06T19:16:21.026Z,12.49
2022-10-06T19:18:49.815Z,12.45
2022-10-06T19:21:18.601Z,12.43
2022-10-06T19:23:47.210Z,12.40
2022-10-06T19:26:15.753Z,12.36
2022-10-06T19:28:44.170Z,12.33
2022-10-06T19:31:15.201Z,12.29
2022-10-06T19:33:44.068Z,12.25
2022-10-06T19:36:13.072Z,12.19
2022-10-06T19:38:42.686Z,12.14
2022-10-06T19:41:30.317Z,12.08
2022-10-06T19:43:59.006Z,12.01
2022-10-06T19:46:27.332Z,11.96
2022-10-06T19:48:56.993Z,11.91
2022-10-06T19:51:25.678Z,11.87
2022-10-06T19:53:54.059Z,11.83
2022-10-06T19:56:25.918Z,11.79
2022-10-06T19:58:54.478Z,11.75
2022-10-06T20:01:22.700Z,11.71
2022-10-06T20:03:51.493Z,11.66
2022-10-06T20:06:21.028Z,11.61
2022-10-06T20:08:50.071Z,11.55
2022-10-06T20:11:20.089Z,11.50
2022-10-06T20:13:48.984Z,11.43
2022-10-06T20:16:19.029Z,11.37
2022-10-06T20:18:50.882Z,11.32
2022-10-06T20:21:20.636Z,11.28
2022-10-06T20:23:50.388Z,11.23
2022-10-06T20:26:20.299Z,11.19
2022-10-06T20:28:49.216Z,11.18
2022-10-06T20:31:17.832Z,11.16
2022-10-06T20:33:46.850Z,11.14
2022-10-06T20:36:15.252Z,11.11
2022-10-06T20:39:02.781Z,11.09
2022-10-06T20:41:31.979Z,11.04
2022-10-06T20:44:01.179Z,11.00
2022-10-06T20:46:31.825Z,10.97
2022-10-06T20:49:03.761Z,10.93
2022-10-06T20:51:33.282Z,10.88
2022-10-06T20:54:04.403Z,10.83
2022-10-06T20:56:34.989Z,10.73
2022-10-06T20:59:04.460Z,10.65
2022-10-06T21:01:32.865Z,10.57
2022-10-06T21:04:02.242Z,10.49
2022-10-06T21:06:31.031Z,10.40
2022-10-06T21:09:00.332Z,10.33
2022-10-06T21:11:28.843Z,10.26
2022-10-06T21:13:57.605Z,10.21
2022-10-06T21:16:27.112Z,10.18
2022-10-06T21:18:55.594Z,10.17
2022-10-06T21:21:24.006Z,10.16
2022-10-06T21:23:52.351Z,10.13
2022-10-06T21:26:22.062Z,10.13
2022-10-06T21:28:53.517Z,10.14
2022-10-06T21:31:23.768Z,10.16
2022-10-06T21:33:52.905Z,10.14
2022-10-06T21:36:21.211Z,10.11
2022-10-06T21:38:50.717Z,10.06
2022-10-06T21:41:30.101Z,10.03
2022-10-06T21:43:58.748Z,10.00
2022-10-06T21:46:29.199Z,9.93
2022-10-06T21:48:58.679Z,9.86
2022-10-06T21:51:28.607Z,9.77
2022-10-06T21:53:57.587Z,9.70
2022-10-06T21:56:27.192Z,9.65
2022-10-06T21:58:56.354Z,9.60
2022-10-06T22:01:32.074Z,9.56
2022-10-06T22:04:01.447Z,9.54
2022-10-06T22:06:30.949Z,9.52
2022-10-06T22:08:59.914Z,9.51
2022-10-06T22:11:29.450Z,9.47
2022-10-06T22:13:59.790Z,9.41
2022-10-06T22:16:29.614Z,9.38
2022-10-06T22:18:58.684Z,9.35
2022-10-06T22:21:26.862Z,9.33
2022-10-06T22:23:56.529Z,9.32
2022-10-06T22:26:25.132Z,9.33
2022-10-06T22:28:54.459Z,9.33
2022-10-06T22:31:25.958Z,9.33
2022-10-06T22:33:56.231Z,9.33
2022-10-06T22:36:25.701Z,9.34
2022-10-06T22:38:54.427Z,9.36
2022-10-06T22:41:23.281Z,9.35
2022-10-06T22:43:57.907Z,9.35
2022-10-06T22:46:27.497Z,9.33
2022-10-06T22:48:55.931Z,9.30
2022-10-06T22:51:25.004Z,9.27
2022-10-06T22:53:57.870Z,9.28
2022-10-06T22:56:31.942Z,9.26
2022-10-06T22:59:00.918Z,9.26
2022-10-06T23:01:30.148Z,9.25
2022-10-06T23:03:59.829Z,9.23
2022-10-06T23:06:31.555Z,9.18
2022-10-06T23:09:00.198Z,9.11
2022-10-06T23:11:28.855Z,9.05
2022-10-06T23:13:57.543Z,8.99
2022-10-06T23:16:25.810Z,8.94
2022-10-06T23:18:55.532Z,8.91
2022-10-06T23:21:27.586Z,8.87
2022-10-06T23:23:58.749Z,8.85
2022-10-06T23:26:28.041Z,8.84
2022-10-06T23:28:57.966Z,8.83
2022-10-06T23:31:26.504Z,8.83
2022-10-06T23:33:55.336Z,8.82
2022-10-06T23:36:23.798Z,8.79
2022-10-06T23:38:52.295Z,8.77
2022-10-06T23:41:21.190Z,8.74
2022-10-06T23:43:49.886Z,8.72
2022-10-06T23:46:18.319Z,8.71
2022-10-06T23:48:46.780Z,8.70
2022-10-06T23:51:15.830Z,8.70
2022-10-06T23:53:44.314Z,8.70
2022-10-06T23:56:13.306Z,8.69
2022-10-06T23:58:42.734Z,8.67
